C. Angelo — WCZ5866 — position and weather

sailwx.info

Track history (hours):
 
Tides and Currents Weather Stations Pressure Air Temp Water Temp Dewpoint Dewpoint Depression Visibility Wind Speed Wind Dir Waves Ship Positions

C. Angelo

Owner: G T 110 INC, NEW HAVEN, CT. More information available from US FCC via Universal Licensing System and Coast Guard Vessel Documentation Center.

Last reported at 2016-May-03 07:33 UTC. Time now 2016-May-27 10:22 UTC.
Position N 41°11' W 072°36'.
Warning: this ship's position is 24 days out of date.

Length 30 m; draft 4 m.

Type: Tug. MMSI: 366988420.

Date/timePositionNaut miles runAvg speedWind from/ knotsBaromVisibWave heightAir tempDewpointWater temp
2016-May-03 07:33N 41°11' W 072°36'8 8.0
2016-May-03 06:33N 41°11' W 072°25'9 8.5
2016-May-03 05:33N 41°13' W 072°14'49 8.1
2016-May-02 23:33N 41°38' W 071°18'9 8.9
2016-May-02 22:33N 41°46' W 071°22'2 0.8
2016-May-02 20:31N 41°48' W 071°23'0 0.0
2016-May-02 19:24N 41°48' W 071°23'0 0.0
2016-May-02 18:33N 41°48' W 071°23'0 0.0
2016-May-02 17:33N 41°48' W 071°23'2 2.5
2016-May-02 16:34N 41°45' W 071°23'7 6.7
2016-May-02 15:33N 41°39' W 071°19'9 6.7
2016-May-02 14:16N 41°31' W 071°21'41 5.1
2016-May-02 06:13N 41°15' W 072°11'1 0.9
2016-May-02 05:33N 41°15' W 072°11'3 3.4
2016-May-02 04:33N 41°15' W 072°15'7 6.7
2016-May-02 03:33N 41°13' W 072°24'7 7.1
2016-May-02 02:33N 41°12' W 072°33'7 7.1
2016-May-02 01:33N 41°11' W 072°42'7 6.9
2016-May-02 00:33N 41°10' W 072°52'54 7.6
2016-May-01 17:27N 40°47' W 073°56'7 7.7
2016-May-01 16:33N 40°41' W 074°01'9 5.9
2016-May-01 15:04N 40°32' W 074°01'24 6.4
2016-May-01 11:12N 40°08' W 073°55'5 7.6
2016-May-01 10:30N 40°03' W 073°56'7 7.0
2016-May-01 09:33N 39°57' W 073°56'7 7.3
2016-May-01 08:33N 39°49' W 073°57'7 7.1
2016-May-01 07:33N 39°42' W 073°59'7 7.0
2016-May-01 06:33N 39°36' W 074°04'7 6.9
2016-May-01 05:33N 39°30' W 074°08'7 6.8
2016-May-01 04:33N 39°24' W 074°12'6 6.3
2016-May-01 03:33N 39°20' W 074°18'6 5.9
2016-May-01 02:33N 39°16' W 074°23'7 5.9
2016-May-01 01:26N 39°11' W 074°29'6 5.9
2016-May-01 00:28N 39°07' W 074°34'25 1.6
2016-Apr-30 08:24N 38°55' W 075°03'5 5.1
2016-Apr-30 07:24N 38°58' W 075°08'5 5.5
2016-Apr-30 06:33N 39°03' W 075°10'5 5.3
2016-Apr-30 05:33N 39°07' W 075°13'6 5.8
2016-Apr-30 04:33N 39°12' W 075°17'6 6.4
2016-Apr-30 03:34N 39°17' W 075°22'8 7.6
2016-Apr-30 02:33N 39°23' W 075°29'8 7.8
2016-Apr-30 01:33N 39°30' W 075°34'5 4.9
2016-Apr-30 00:33N 39°33' W 075°38'6 6.5
2016-Apr-29 23:33N 39°32' W 075°46'5 5.4
2016-Apr-29 22:33N 39°31' W 075°53'7 7.3
2016-Apr-29 21:33N 39°26' W 076°00'8 8.2
2016-Apr-29 20:34N 39°21' W 076°09'8 8.0
2016-Apr-29 19:32N 39°14' W 076°14'8 8.0
2016-Apr-29 18:32N 39°07' W 076°18'8 8.3
2016-Apr-29 17:33N 38°60' W 076°23'9 8.7
2016-Apr-29 16:33N 38°51' W 076°25'42 8.4
2016-Apr-29 11:33N 38°10' W 076°15'70 7.8
2016-Apr-29 02:33N 37°01' W 076°02'6 6.3
2016-Apr-29 01:33N 36°57' W 075°56'134 7.0
2016-Apr-28 06:32N 34°43' W 075°51'9 9.0
2016-Apr-28 05:30N 34°37' W 075°59'9 9.0
2016-Apr-28 04:33N 34°31' W 076°07'18 8.7
2016-Apr-28 02:30N 34°18' W 076°22'18 8.9
2016-Apr-28 00:25N 34°06' W 076°39'8 8.9
2016-Apr-27 23:32N 34°01' W 076°46'9 8.9
2016-Apr-27 22:33N 33°55' W 076°54'187 8.9
2016-Apr-27 01:31N 32°10' W 079°58'8 8.5
2016-Apr-27 00:33N 32°05' W 080°06'8 8.2
2016-Apr-26 23:33N 31°60' W 080°13'9 8.6
2016-Apr-26 22:33N 31°53' W 080°20'10 8.6
2016-Apr-26 21:25N 31°44' W 080°24'  
2016-Apr-23 17:33N 27°01' W 079°59'1110.7
2016-Apr-23 16:33N 26°51' W 079°59'1110.0
2016-Apr-23 15:30N 26°40' W 079°59'9 9.8
2016-Apr-23 14:33N 26°31' W 080°00'10 9.9
2016-Apr-23 13:33N 26°21' W 080°01'1010.2
2016-Apr-23 12:33N 26°11' W 080°02'10 9.7
2016-Apr-23 11:33N 26°01' W 080°02'9 8.9
2016-Apr-23 10:33N 25°52' W 080°02'9 8.7
2016-Apr-23 09:33N 25°44' W 080°03'  
Track history (hours):
 
Tides and Currents Weather Stations Pressure Air Temp Water Temp Dewpoint Dewpoint Depression Visibility Wind Speed Wind Dir Waves Ship Positions

C. Angelo

Owner: G T 110 INC, NEW HAVEN, CT. More information available from US FCC via Universal Licensing System and Coast Guard Vessel Documentation Center.

Last reported at 2016-May-03 07:33 UTC. Time now 2016-May-27 10:22 UTC.
Position N 41°11' W 072°36'.
Warning: this ship's position is 24 days out of date.

Length 30 m; draft 4 m.

Type: Tug. MMSI: 366988420.

Date/timePositionNaut miles runAvg speedWind from/ knotsBaromVisibWave heightAir tempDewpointWater temp
2016-May-03 07:33N 41°11' W 072°36'8 8.0
2016-May-03 06:33N 41°11' W 072°25'9 8.5
2016-May-03 05:33N 41°13' W 072°14'49 8.1
2016-May-02 23:33N 41°38' W 071°18'9 8.9
2016-May-02 22:33N 41°46' W 071°22'2 0.8
2016-May-02 20:31N 41°48' W 071°23'0 0.0
2016-May-02 19:24N 41°48' W 071°23'0 0.0
2016-May-02 18:33N 41°48' W 071°23'0 0.0
2016-May-02 17:33N 41°48' W 071°23'2 2.5
2016-May-02 16:34N 41°45' W 071°23'7 6.7
2016-May-02 15:33N 41°39' W 071°19'9 6.7
2016-May-02 14:16N 41°31' W 071°21'41 5.1
2016-May-02 06:13N 41°15' W 072°11'1 0.9
2016-May-02 05:33N 41°15' W 072°11'3 3.4
2016-May-02 04:33N 41°15' W 072°15'7 6.7
2016-May-02 03:33N 41°13' W 072°24'7 7.1
2016-May-02 02:33N 41°12' W 072°33'7 7.1
2016-May-02 01:33N 41°11' W 072°42'7 6.9
2016-May-02 00:33N 41°10' W 072°52'54 7.6
2016-May-01 17:27N 40°47' W 073°56'7 7.7
2016-May-01 16:33N 40°41' W 074°01'9 5.9
2016-May-01 15:04N 40°32' W 074°01'24 6.4
2016-May-01 11:12N 40°08' W 073°55'5 7.6
2016-May-01 10:30N 40°03' W 073°56'7 7.0
2016-May-01 09:33N 39°57' W 073°56'7 7.3
2016-May-01 08:33N 39°49' W 073°57'7 7.1
2016-May-01 07:33N 39°42' W 073°59'7 7.0
2016-May-01 06:33N 39°36' W 074°04'7 6.9
2016-May-01 05:33N 39°30' W 074°08'7 6.8
2016-May-01 04:33N 39°24' W 074°12'6 6.3
2016-May-01 03:33N 39°20' W 074°18'6 5.9
2016-May-01 02:33N 39°16' W 074°23'7 5.9
2016-May-01 01:26N 39°11' W 074°29'6 5.9
2016-May-01 00:28N 39°07' W 074°34'25 1.6
2016-Apr-30 08:24N 38°55' W 075°03'5 5.1
2016-Apr-30 07:24N 38°58' W 075°08'5 5.5
2016-Apr-30 06:33N 39°03' W 075°10'5 5.3
2016-Apr-30 05:33N 39°07' W 075°13'6 5.8
2016-Apr-30 04:33N 39°12' W 075°17'6 6.4
2016-Apr-30 03:34N 39°17' W 075°22'8 7.6
2016-Apr-30 02:33N 39°23' W 075°29'8 7.8
2016-Apr-30 01:33N 39°30' W 075°34'5 4.9
2016-Apr-30 00:33N 39°33' W 075°38'6 6.5
2016-Apr-29 23:33N 39°32' W 075°46'5 5.4
2016-Apr-29 22:33N 39°31' W 075°53'7 7.3
2016-Apr-29 21:33N 39°26' W 076°00'8 8.2
2016-Apr-29 20:34N 39°21' W 076°09'8 8.0
2016-Apr-29 19:32N 39°14' W 076°14'8 8.0
2016-Apr-29 18:32N 39°07' W 076°18'8 8.3
2016-Apr-29 17:33N 38°60' W 076°23'9 8.7
2016-Apr-29 16:33N 38°51' W 076°25'42 8.4
2016-Apr-29 11:33N 38°10' W 076°15'70 7.8
2016-Apr-29 02:33N 37°01' W 076°02'6 6.3
2016-Apr-29 01:33N 36°57' W 075°56'134 7.0
2016-Apr-28 06:32N 34°43' W 075°51'9 9.0
2016-Apr-28 05:30N 34°37' W 075°59'9 9.0
2016-Apr-28 04:33N 34°31' W 076°07'18 8.7
2016-Apr-28 02:30N 34°18' W 076°22'18 8.9
2016-Apr-28 00:25N 34°06' W 076°39'8 8.9
2016-Apr-27 23:32N 34°01' W 076°46'9 8.9
2016-Apr-27 22:33N 33°55' W 076°54'187 8.9
2016-Apr-27 01:31N 32°10' W 079°58'8 8.5
2016-Apr-27 00:33N 32°05' W 080°06'8 8.2
2016-Apr-26 23:33N 31°60' W 080°13'9 8.6
2016-Apr-26 22:33N 31°53' W 080°20'10 8.6
2016-Apr-26 21:25N 31°44' W 080°24'  
2016-Apr-23 17:33N 27°01' W 079°59'1110.7
2016-Apr-23 16:33N 26°51' W 079°59'1110.0
2016-Apr-23 15:30N 26°40' W 079°59'9 9.8
2016-Apr-23 14:33N 26°31' W 080°00'10 9.9
2016-Apr-23 13:33N 26°21' W 080°01'1010.2
2016-Apr-23 12:33N 26°11' W 080°02'10 9.7
2016-Apr-23 11:33N 26°01' W 080°02'9 8.9
2016-Apr-23 10:33N 25°52' W 080°02'9 8.7
2016-Apr-23 09:33N 25°44' W 080°03'  

Dump ship's entire track history